createdAt,value
2018-01-08T00:00:12.194Z,1.60
2018-01-08T00:02:39.614Z,1.60
2018-01-08T00:05:07.101Z,1.60
2018-01-08T00:07:34.544Z,1.60
2018-01-08T00:10:02.023Z,1.50
2018-01-08T00:12:29.450Z,1.50
2018-01-08T00:14:56.871Z,1.50
2018-01-08T00:17:24.317Z,1.50
2018-01-08T00:19:51.856Z,1.50
2018-01-08T00:22:19.298Z,1.50
2018-01-08T00:24:46.712Z,1.50
2018-01-08T00:27:14.228Z,1.50
2018-01-08T00:29:41.654Z,1.50
2018-01-08T00:32:09.136Z,1.40
2018-01-08T00:34:36.801Z,1.50
2018-01-08T00:37:04.370Z,1.50
2018-01-08T00:39:31.997Z,1.50
2018-01-08T00:41:59.598Z,1.50
2018-01-08T00:44:27.134Z,1.50
2018-01-08T00:46:54.574Z,1.50
2018-01-08T00:49:22.241Z,1.50
2018-01-08T00:51:49.738Z,1.50
2018-01-08T00:54:17.191Z,1.50
2018-01-08T00:56:44.642Z,1.50
2018-01-08T00:59:12.290Z,1.50
2018-01-08T01:01:39.729Z,1.50
2018-01-08T01:04:07.414Z,1.50
2018-01-08T01:06:34.825Z,1.50
2018-01-08T01:09:02.286Z,1.50
2018-01-08T01:11:30.004Z,1.50
2018-01-08T01:13:57.651Z,1.40
2018-01-08T01:16:25.250Z,1.40
2018-01-08T01:18:52.986Z,1.40
2018-01-08T01:21:20.410Z,1.40
2018-01-08T01:23:47.835Z,1.40
2018-01-08T01:26:15.365Z,1.40
2018-01-08T01:28:43.129Z,1.40
2018-01-08T01:31:10.559Z,1.40
2018-01-08T01:33:37.986Z,1.40
2018-01-08T01:36:05.511Z,1.40
2018-01-08T01:38:32.930Z,1.40
2018-01-08T01:41:00.418Z,1.40
2018-01-08T01:43:27.878Z,1.40
2018-01-08T01:45:55.337Z,1.40
2018-01-08T01:48:22.966Z,1.40
2018-01-08T01:50:50.465Z,1.40
2018-01-08T01:53:17.916Z,1.40
2018-01-08T01:55:45.421Z,1.40
2018-01-08T01:58:12.846Z,1.40
2018-01-08T02:00:40.311Z,1.50
2018-01-08T02:03:07.761Z,1.50
2018-01-08T02:05:35.182Z,1.50
2018-01-08T02:08:02.671Z,1.50
2018-01-08T02:10:30.411Z,1.50
2018-01-08T02:12:57.988Z,1.50
2018-01-08T02:15:25.423Z,1.50
2018-01-08T02:17:52.858Z,1.50
2018-01-08T02:20:20.666Z,1.60
2018-01-08T02:22:48.434Z,1.50
2018-01-08T02:25:16.075Z,1.50
2018-01-08T02:27:43.520Z,1.50
2018-01-08T02:30:11.777Z,1.60
2018-01-08T02:32:39.472Z,1.50
2018-01-08T02:35:06.891Z,1.50
2018-01-08T02:37:34.409Z,1.60
2018-01-08T02:40:01.831Z,1.60
2018-01-08T02:42:29.306Z,1.60
2018-01-08T02:44:56.732Z,1.60
2018-01-08T02:47:24.161Z,1.60
2018-01-08T02:49:51.612Z,1.60
2018-01-08T02:52:19.070Z,1.50
2018-01-08T02:54:47.552Z,1.60
2018-01-08T02:57:14.986Z,1.60
2018-01-08T02:59:42.638Z,1.60
2018-01-08T03:02:10.042Z,1.60
2018-01-08T03:04:37.807Z,1.60
2018-01-08T03:07:05.269Z,1.60
2018-01-08T03:09:32.709Z,1.70
2018-01-08T03:12:00.149Z,1.60
2018-01-08T03:14:27.558Z,1.70
2018-01-08T03:16:54.982Z,1.70
2018-01-08T03:19:22.413Z,1.70
2018-01-08T03:21:49.877Z,1.70
2018-01-08T03:24:17.323Z,1.70
2018-01-08T03:26:44.752Z,1.70
2018-01-08T03:29:12.255Z,1.80
2018-01-08T03:31:39.705Z,1.80
2018-01-08T03:34:07.136Z,1.80
2018-01-08T03:36:34.625Z,1.80
2018-01-08T03:39:02.094Z,1.80
2018-01-08T03:41:29.774Z,1.80
2018-01-08T03:43:57.187Z,1.80
2018-01-08T03:46:24.765Z,1.80
2018-01-08T03:48:52.221Z,1.80
2018-01-08T03:51:19.681Z,1.80
2018-01-08T03:53:47.103Z,1.80
2018-01-08T03:56:14.533Z,1.80
2018-01-08T03:58:42.061Z,1.80
2018-01-08T04:01:09.524Z,1.80
2018-01-08T04:03:36.950Z,1.80
2018-01-08T04:06:04.410Z,1.90
2018-01-08T04:08:31.829Z,1.90
2018-01-08T04:10:59.296Z,1.90
2018-01-08T04:13:27.649Z,1.90
2018-01-08T04:15:55.967Z,1.90
2018-01-08T04:18:23.422Z,1.80
2018-01-08T04:20:50.883Z,1.80
2018-01-08T04:23:18.386Z,1.90
2018-01-08T04:25:45.817Z,1.80
2018-01-08T04:28:13.289Z,1.90
2018-01-08T04:30:40.717Z,1.80
2018-01-08T04:33:08.302Z,1.90
2018-01-08T04:35:35.933Z,1.80
2018-01-08T04:38:03.434Z,1.90
2018-01-08T04:40:30.853Z,1.90
2018-01-08T04:42:58.349Z,1.80
2018-01-08T04:45:25.911Z,1.80
2018-01-08T04:47:53.346Z,1.80
2018-01-08T04:50:20.814Z,1.80
2018-01-08T04:52:48.253Z,1.80
2018-01-08T04:55:15.742Z,1.80
2018-01-08T04:57:43.154Z,1.80
2018-01-08T05:00:10.646Z,1.80
2018-01-08T05:02:38.088Z,1.80
2018-01-08T05:05:05.560Z,1.80
2018-01-08T05:07:32.983Z,1.80
2018-01-08T05:10:00.396Z,1.70
2018-01-08T05:12:27.821Z,1.70
2018-01-08T05:14:55.390Z,1.70
2018-01-08T05:17:22.838Z,1.70
2018-01-08T05:19:50.260Z,1.70
2018-01-08T05:22:17.761Z,1.70
2018-01-08T05:24:45.393Z,1.60
2018-01-08T05:27:12.980Z,1.70
2018-01-08T05:29:40.414Z,1.70
2018-01-08T05:32:07.897Z,1.60
2018-01-08T05:34:35.325Z,1.60
2018-01-08T05:37:02.745Z,1.60
2018-01-08T05:39:30.174Z,1.60
2018-01-08T05:41:57.625Z,1.50
2018-01-08T05:44:25.198Z,1.50
2018-01-08T05:46:52.692Z,1.50
2018-01-08T05:49:20.294Z,1.50
2018-01-08T05:51:47.751Z,1.50
2018-01-08T05:54:15.269Z,1.50
2018-01-08T05:56:42.785Z,1.40
2018-01-08T05:59:10.448Z,1.40
2018-01-08T06:01:37.984Z,1.40
2018-01-08T06:04:05.492Z,1.40
2018-01-08T06:06:32.861Z,1.40
2018-01-08T06:09:00.385Z,1.40
2018-01-08T06:11:27.837Z,1.40
2018-01-08T06:13:55.254Z,1.40
2018-01-08T06:16:22.693Z,1.40
2018-01-08T06:18:50.122Z,1.40
2018-01-08T06:21:17.677Z,1.40
2018-01-08T06:23:45.101Z,1.40
2018-01-08T06:26:12.589Z,1.30
2018-01-08T06:28:40.064Z,1.30
2018-01-08T06:31:07.474Z,1.30
2018-01-08T06:33:34.897Z,1.30
2018-01-08T06:36:02.326Z,1.30
2018-01-08T06:38:29.878Z,1.30
2018-01-08T06:40:57.338Z,1.30
2018-01-08T06:43:24.780Z,1.20
2018-01-08T06:45:52.267Z,1.20
2018-01-08T06:48:19.721Z,1.20
2018-01-08T06:50:47.142Z,1.20
2018-01-08T06:53:14.561Z,1.20
2018-01-08T06:55:41.983Z,1.20
2018-01-08T06:58:09.409Z,1.10
2018-01-08T07:00:36.909Z,1.10
2018-01-08T07:03:04.648Z,1.10
2018-01-08T07:05:32.220Z,1.10
2018-01-08T07:07:59.681Z,1.10
2018-01-08T07:10:27.441Z,1.10
2018-01-08T07:12:54.857Z,1.10
2018-01-08T07:15:22.284Z,1.10
2018-01-08T07:17:49.713Z,1.10
2018-01-08T07:20:17.178Z,1.10
2018-01-08T07:22:44.608Z,1.10
2018-01-08T07:25:12.094Z,1.10
2018-01-08T07:27:39.535Z,1.10
2018-01-08T07:30:07.015Z,1.10
2018-01-08T07:32:34.556Z,1.10
2018-01-08T07:35:02.026Z,1.10
2018-01-08T07:37:29.475Z,1.10
2018-01-08T07:39:56.945Z,1.10
2018-01-08T07:42:24.619Z,1.00
2018-01-08T07:44:52.094Z,1.10
2018-01-08T07:47:19.526Z,1.00
2018-01-08T07:49:46.968Z,1.00
2018-01-08T07:52:14.537Z,1.00
2018-01-08T07:54:41.977Z,1.10
2018-01-08T07:57:09.405Z,1.10
2018-01-08T07:59:37.825Z,1.10
2018-01-08T08:02:05.251Z,1.10
2018-01-08T08:04:32.677Z,1.10
2018-01-08T08:07:00.110Z,1.10
2018-01-08T08:09:27.558Z,1.10
2018-01-08T08:11:55.117Z,1.10
2018-01-08T08:14:22.538Z,1.10
2018-01-08T08:16:49.973Z,1.10
2018-01-08T08:19:17.501Z,1.10
2018-01-08T08:21:44.940Z,1.10
2018-01-08T08:24:12.363Z,1.10
2018-01-08T08:26:39.785Z,1.10
2018-01-08T08:29:07.308Z,1.10
2018-01-08T08:31:34.728Z,1.20
2018-01-08T08:34:02.242Z,1.10
2018-01-08T08:36:29.883Z,1.20
2018-01-08T08:38:58.261Z,1.20
2018-01-08T08:41:25.784Z,1.20
2018-01-08T08:43:53.978Z,1.30
2018-01-08T08:46:21.579Z,1.20
2018-01-08T08:48:49.065Z,1.30
2018-01-08T08:51:16.506Z,1.30
2018-01-08T08:53:44.098Z,1.30
2018-01-08T08:56:11.474Z,1.30
2018-01-08T08:58:38.913Z,1.40
2018-01-08T09:01:06.426Z,1.40
2018-01-08T09:03:34.072Z,1.50
2018-01-08T09:06:01.674Z,1.50
2018-01-08T09:08:29.099Z,1.60
2018-01-08T09:10:56.514Z,1.60
2018-01-08T09:13:24.026Z,1.60
2018-01-08T09:15:51.661Z,1.60
2018-01-08T09:18:19.141Z,1.70
2018-01-08T09:20:46.701Z,1.70
2018-01-08T09:23:14.133Z,1.70
2018-01-08T09:25:41.564Z,1.80
2018-01-08T09:28:09.996Z,1.90
2018-01-08T09:30:37.418Z,1.80
2018-01-08T09:33:04.921Z,1.90
2018-01-08T09:35:32.542Z,1.90
2018-01-08T09:37:59.978Z,1.90
2018-01-08T09:40:28.173Z,2.10
2018-01-08T09:42:55.609Z,2.10
2018-01-08T09:45:23.037Z,2.10
2018-01-08T09:47:50.772Z,2.10
2018-01-08T09:50:18.209Z,2.20
2018-01-08T09:52:45.633Z,2.20
2018-01-08T09:55:13.262Z,2.30
2018-01-08T09:57:40.723Z,2.30
2018-01-08T10:00:08.349Z,2.40
2018-01-08T10:02:47.592Z,2.40
2018-01-08T10:05:26.794Z,2.50
2018-01-08T10:08:06.066Z,2.60
2018-01-08T10:10:45.626Z,2.70
2018-01-08T10:13:24.755Z,2.70
2018-01-08T10:16:04.121Z,2.80
2018-01-08T10:18:31.066Z,2.80
2018-01-08T10:20:58.896Z,2.90
2018-01-08T10:23:26.467Z,3.00
2018-01-08T10:25:54.029Z,3.00
2018-01-08T10:28:21.483Z,3.10
2018-01-08T10:30:48.956Z,3.10
2018-01-08T10:33:16.406Z,3.10
2018-01-08T10:35:43.838Z,3.10
2018-01-08T10:38:11.316Z,3.20
2018-01-08T10:40:38.754Z,3.30
2018-01-08T10:43:11.905Z,3.40
2018-01-08T10:45:45.506Z,3.40
2018-01-08T10:48:18.499Z,3.50
2018-01-08T10:50:52.450Z,3.50
2018-01-08T10:53:35.656Z,3.50
2018-01-08T10:56:03.091Z,3.60
2018-01-08T10:58:30.513Z,3.70
2018-01-08T11:01:03.542Z,3.70
2018-01-08T11:03:36.669Z,3.70
2018-01-08T11:06:04.369Z,3.70
2018-01-08T11:08:32.032Z,3.80
2018-01-08T11:10:59.448Z,3.80
2018-01-08T11:13:26.881Z,3.90
2018-01-08T11:15:55.086Z,4.00
2018-01-08T11:18:22.538Z,3.90
2018-01-08T11:20:49.984Z,4.00
2018-01-08T11:23:17.417Z,4.00
2018-01-08T11:25:45.122Z,4.10
2018-01-08T11:28:12.689Z,4.20
2018-01-08T11:30:40.117Z,4.20
2018-01-08T11:33:07.614Z,4.30
2018-01-08T11:35:35.043Z,4.20
2018-01-08T11:38:02.469Z,4.20
2018-01-08T11:40:29.996Z,4.30
2018-01-08T11:42:57.417Z,4.30
2018-01-08T11:45:24.837Z,4.30
2018-01-08T11:47:52.261Z,4.30
2018-01-08T11:50:19.818Z,4.30
2018-01-08T11:52:47.246Z,4.30
2018-01-08T11:55:14.734Z,4.30
2018-01-08T11:57:42.166Z,4.30
2018-01-08T12:00:09.641Z,4.30
2018-01-08T12:02:37.069Z,4.30
2018-01-08T12:05:04.558Z,4.40
2018-01-08T12:07:32.017Z,4.40
2018-01-08T12:09:59.482Z,4.40
2018-01-08T12:12:26.910Z,4.40
2018-01-08T12:14:54.325Z,4.40
2018-01-08T12:17:21.749Z,4.50
2018-01-08T12:19:49.213Z,4.50
2018-01-08T12:22:16.662Z,4.60
2018-01-08T12:24:44.229Z,4.60
2018-01-08T12:27:11.681Z,4.70
2018-01-08T12:29:39.107Z,4.70
2018-01-08T12:32:06.542Z,4.80
2018-01-08T12:34:33.974Z,4.90
2018-01-08T12:37:01.516Z,4.90
2018-01-08T12:39:28.937Z,4.90
2018-01-08T12:41:56.357Z,4.90
2018-01-08T12:44:23.889Z,5.00
2018-01-08T12:46:51.341Z,5.00
2018-01-08T12:49:18.775Z,5.00
2018-01-08T12:51:46.257Z,5.00
2018-01-08T12:54:13.681Z,5.00
2018-01-08T12:56:41.101Z,5.00
2018-01-08T12:59:08.526Z,5.10
2018-01-08T13:01:36.094Z,5.10
2018-01-08T13:04:03.518Z,5.10
2018-01-08T13:06:31.008Z,5.10
2018-01-08T13:08:58.436Z,5.10
2018-01-08T13:11:25.882Z,5.10
2018-01-08T13:13:53.305Z,5.10
2018-01-08T13:16:20.740Z,5.10
2018-01-08T13:18:48.301Z,5.10
2018-01-08T13:21:15.939Z,5.00
2018-01-08T13:23:43.362Z,5.00
2018-01-08T13:26:10.982Z,5.00
2018-01-08T13:28:38.405Z,4.90
2018-01-08T13:31:05.842Z,4.90
2018-01-08T13:33:34.029Z,4.90
2018-01-08T13:36:01.735Z,4.90
2018-01-08T13:38:29.157Z,4.90
2018-01-08T13:40:56.655Z,4.80
2018-01-08T13:43:24.091Z,4.80
2018-01-08T13:45:51.509Z,4.80
2018-01-08T13:48:19.029Z,4.80
2018-01-08T13:50:46.449Z,4.80
2018-01-08T13:53:13.937Z,4.80
2018-01-08T13:55:41.402Z,4.70
2018-01-08T13:58:08.841Z,4.70
2018-01-08T14:00:36.314Z,4.70
2018-01-08T14:03:03.770Z,4.70
2018-01-08T14:05:31.227Z,4.70
2018-01-08T14:07:58.729Z,4.60
2018-01-08T14:10:26.167Z,4.60
2018-01-08T14:12:53.595Z,4.60
2018-01-08T14:15:21.033Z,4.60
2018-01-08T14:17:48.453Z,4.60
2018-01-08T14:20:15.977Z,4.60
2018-01-08T14:22:43.418Z,4.50
2018-01-08T14:25:10.837Z,4.50
2018-01-08T14:27:38.262Z,4.50
2018-01-08T14:30:05.810Z,4.50
2018-01-08T14:32:33.282Z,4.50
2018-01-08T14:35:00.708Z,4.50
2018-01-08T14:37:28.125Z,4.50
2018-01-08T14:39:55.638Z,4.40
2018-01-08T14:42:23.090Z,4.40
2018-01-08T14:44:50.545Z,4.40
2018-01-08T14:47:18.004Z,4.30
2018-01-08T14:49:45.425Z,4.40
2018-01-08T14:52:12.850Z,4.30
2018-01-08T14:54:40.307Z,4.30
2018-01-08T14:57:07.854Z,4.30
2018-01-08T14:59:35.285Z,4.30
2018-01-08T15:02:02.702Z,4.30
2018-01-08T15:04:30.129Z,4.30
2018-01-08T15:06:57.558Z,4.30
2018-01-08T15:09:25.133Z,4.30
2018-01-08T15:11:52.557Z,4.20
2018-01-08T15:14:20.042Z,4.20
2018-01-08T15:16:47.505Z,4.20
2018-01-08T15:19:14.947Z,4.20
2018-01-08T15:21:42.613Z,4.10
2018-01-08T15:24:10.179Z,4.10
2018-01-08T15:26:37.658Z,4.10
2018-01-08T15:29:05.073Z,4.10
2018-01-08T15:31:32.563Z,4.10
2018-01-08T15:34:00.210Z,4.10
2018-01-08T15:36:27.694Z,4.10
2018-01-08T15:38:55.152Z,4.00
2018-01-08T15:41:22.702Z,4.00
2018-01-08T15:43:50.158Z,4.00
2018-01-08T15:46:17.645Z,4.00
2018-01-08T15:48:45.269Z,4.00
2018-01-08T15:51:12.835Z,3.90
2018-01-08T15:53:40.289Z,3.90
2018-01-08T15:56:08.053Z,3.90
2018-01-08T15:58:35.477Z,3.90
2018-01-08T16:01:02.904Z,3.90
2018-01-08T16:03:30.353Z,3.90
2018-01-08T16:05:57.891Z,3.90
2018-01-08T16:08:25.309Z,3.90
2018-01-08T16:10:52.737Z,3.90
2018-01-08T16:13:20.160Z,3.80
2018-01-08T16:15:47.626Z,3.80
2018-01-08T16:18:15.073Z,3.80
2018-01-08T16:20:42.539Z,3.80
2018-01-08T16:23:10.101Z,3.80
2018-01-08T16:25:37.581Z,3.70
2018-01-08T16:28:05.394Z,3.80
2018-01-08T16:30:32.853Z,3.80
2018-01-08T16:33:00.443Z,3.80
2018-01-08T16:35:28.009Z,3.70
2018-01-08T16:37:55.461Z,3.70
2018-01-08T16:40:23.222Z,3.70
2018-01-08T16:42:50.867Z,3.70
2018-01-08T16:45:18.303Z,3.70
2018-01-08T16:47:46.498Z,3.60
2018-01-08T16:50:13.942Z,3.60
2018-01-08T16:52:41.367Z,3.50
2018-01-08T16:55:08.898Z,3.50
2018-01-08T16:57:36.546Z,3.50
2018-01-08T17:00:04.045Z,3.40
2018-01-08T17:02:31.467Z,3.40
2018-01-08T17:04:58.963Z,3.40
2018-01-08T17:07:26.381Z,3.30
2018-01-08T17:09:54.433Z,3.30
2018-01-08T17:12:21.902Z,3.30
2018-01-08T17:14:49.397Z,3.30
2018-01-08T17:17:16.915Z,3.20
2018-01-08T17:19:44.332Z,3.20
2018-01-08T17:22:11.882Z,3.20
2018-01-08T17:24:39.318Z,3.10
2018-01-08T17:27:06.781Z,3.10
2018-01-08T17:29:34.401Z,3.00
2018-01-08T17:32:01.825Z,3.00
2018-01-08T17:34:29.313Z,3.00
2018-01-08T17:36:56.902Z,2.90
2018-01-08T17:39:24.335Z,2.90
2018-01-08T17:41:51.827Z,2.80
2018-01-08T17:44:19.253Z,2.80
2018-01-08T17:46:46.684Z,2.80
2018-01-08T17:49:14.102Z,2.80
2018-01-08T17:51:41.545Z,2.80
2018-01-08T17:54:09.300Z,2.70
2018-01-08T17:56:36.802Z,2.70
2018-01-08T17:59:04.225Z,2.70
2018-01-08T18:01:31.790Z,2.70
2018-01-08T18:03:59.245Z,2.60
2018-01-08T18:06:26.896Z,2.60
2018-01-08T18:08:54.405Z,2.60
2018-01-08T18:11:21.922Z,2.50
2018-01-08T18:13:49.350Z,2.50
2018-01-08T18:16:16.784Z,2.50
2018-01-08T18:18:44.197Z,2.40
2018-01-08T18:21:11.630Z,2.40
2018-01-08T18:23:39.045Z,2.40
2018-01-08T18:26:06.679Z,2.40
2018-01-08T18:28:34.433Z,2.40
2018-01-08T18:31:01.862Z,2.40
2018-01-08T18:33:29.293Z,2.40
2018-01-08T18:35:56.718Z,2.30
2018-01-08T18:38:24.178Z,2.30
2018-01-08T18:40:51.603Z,2.20
2018-01-08T18:43:19.379Z,2.20
2018-01-08T18:45:46.971Z,2.20
2018-01-08T18:48:14.385Z,2.20
2018-01-08T18:50:41.818Z,2.20
2018-01-08T18:53:09.260Z,2.10
2018-01-08T18:55:36.689Z,2.10
2018-01-08T18:58:04.146Z,2.10
2018-01-08T19:00:31.565Z,2.10
2018-01-08T19:02:59.043Z,2.10
2018-01-08T19:05:26.534Z,2.20
2018-01-08T19:07:54.082Z,2.10
2018-01-08T19:10:21.709Z,2.10
2018-01-08T19:12:49.236Z,2.10
2018-01-08T19:15:16.769Z,2.10
2018-01-08T19:17:44.218Z,2.10
2018-01-08T19:20:11.673Z,2.10
2018-01-08T19:22:39.189Z,2.10
2018-01-08T19:25:06.560Z,2.10
2018-01-08T19:27:34.099Z,2.10
2018-01-08T19:30:01.494Z,2.10
2018-01-08T19:32:28.965Z,2.10
2018-01-08T19:34:56.426Z,2.10
2018-01-08T19:37:23.863Z,2.10
2018-01-08T19:39:51.301Z,2.10
2018-01-08T19:42:18.757Z,2.00
2018-01-08T19:44:46.209Z,2.00
2018-01-08T19:47:14.498Z,2.00
2018-01-08T19:49:42.049Z,2.00
2018-01-08T19:52:09.553Z,2.10
2018-01-08T19:54:36.983Z,2.00
2018-01-08T19:57:04.397Z,2.10
2018-01-08T19:59:31.914Z,2.00
2018-01-08T20:01:59.417Z,2.00
2018-01-08T20:04:26.844Z,2.00
2018-01-08T20:06:54.299Z,2.10
2018-01-08T20:09:21.725Z,2.00
2018-01-08T20:11:49.133Z,2.10
2018-01-08T20:14:16.617Z,2.10
2018-01-08T20:16:44.098Z,2.10
2018-01-08T20:19:11.505Z,2.10
2018-01-08T20:21:38.919Z,2.10
2018-01-08T20:24:06.505Z,2.10
2018-01-08T20:26:33.962Z,2.10
2018-01-08T20:29:01.384Z,2.10
2018-01-08T20:31:28.902Z,2.10
2018-01-08T20:33:56.530Z,2.10
2018-01-08T20:36:23.989Z,2.10
2018-01-08T20:38:51.578Z,2.10
2018-01-08T20:41:19.021Z,2.10
2018-01-08T20:43:46.681Z,2.10
2018-01-08T20:46:14.126Z,2.10
2018-01-08T20:48:41.624Z,2.20
2018-01-08T20:51:09.050Z,2.20
2018-01-08T20:53:36.533Z,2.10
2018-01-08T20:56:03.961Z,2.20
2018-01-08T20:58:31.401Z,2.10
2018-01-08T21:00:58.825Z,2.20
2018-01-08T21:03:27.067Z,2.20
2018-01-08T21:05:54.681Z,2.20
2018-01-08T21:08:22.106Z,2.20
2018-01-08T21:10:49.746Z,2.20
2018-01-08T21:13:17.210Z,2.20
2018-01-08T21:15:44.994Z,2.30
2018-01-08T21:18:12.400Z,2.20
2018-01-08T21:20:39.893Z,2.30
2018-01-08T21:23:07.339Z,2.30
2018-01-08T21:25:34.801Z,2.30
2018-01-08T21:28:02.230Z,2.30
2018-01-08T21:30:29.717Z,2.30
2018-01-08T21:32:57.170Z,2.40
2018-01-08T21:35:24.602Z,2.40
2018-01-08T21:37:52.022Z,2.50
2018-01-08T21:40:19.445Z,2.60
2018-01-08T21:42:47.017Z,2.60
2018-01-08T21:45:14.453Z,2.60
2018-01-08T21:47:41.910Z,2.60
2018-01-08T21:50:09.353Z,2.60
2018-01-08T21:52:36.835Z,2.60
2018-01-08T21:55:04.474Z,2.60
2018-01-08T21:57:32.050Z,2.70
2018-01-08T21:59:59.520Z,2.70
2018-01-08T22:02:26.950Z,2.70
2018-01-08T22:04:54.381Z,2.80
2018-01-08T22:07:21.800Z,2.80
2018-01-08T22:09:49.250Z,2.80
2018-01-08T22:12:16.681Z,2.90
2018-01-08T22:14:44.150Z,2.90
2018-01-08T22:17:11.606Z,2.90
2018-01-08T22:19:39.046Z,2.90
2018-01-08T22:22:06.537Z,3.00
2018-01-08T22:24:33.986Z,3.00
2018-01-08T22:27:01.414Z,3.00
2018-01-08T22:29:28.869Z,3.00
2018-01-08T22:31:56.288Z,3.00
2018-01-08T22:34:23.710Z,3.00
2018-01-08T22:36:51.256Z,3.00
2018-01-08T22:39:18.823Z,3.10
2018-01-08T22:41:46.281Z,3.10
2018-01-08T22:44:13.705Z,3.10
2018-01-08T22:46:41.126Z,3.10
2018-01-08T22:49:08.669Z,3.00
2018-01-08T22:51:36.090Z,3.00
2018-01-08T22:54:03.515Z,3.00
2018-01-08T22:56:31.035Z,3.00
2018-01-08T22:58:58.461Z,3.00
2018-01-08T23:01:25.884Z,3.00
2018-01-08T23:03:54.235Z,3.10
2018-01-08T23:06:21.657Z,3.10
2018-01-08T23:08:49.127Z,3.00
2018-01-08T23:11:16.705Z,3.10
2018-01-08T23:13:44.477Z,3.00
2018-01-08T23:16:11.921Z,3.00
2018-01-08T23:18:39.341Z,3.00
2018-01-08T23:21:06.762Z,3.00
2018-01-08T23:23:34.296Z,3.00
2018-01-08T23:26:01.745Z,2.90
2018-01-08T23:28:29.174Z,2.90
2018-01-08T23:30:56.597Z,2.90
2018-01-08T23:33:24.025Z,2.90
2018-01-08T23:35:51.450Z,2.90
2018-01-08T23:38:19.855Z,2.90
2018-01-08T23:40:47.281Z,2.90
2018-01-08T23:43:15.470Z,2.90
2018-01-08T23:45:42.943Z,2.90
2018-01-08T23:48:10.441Z,2.90
2018-01-08T23:50:37.855Z,2.90
2018-01-08T23:53:05.334Z,2.90
2018-01-08T23:55:32.761Z,2.90
2018-01-08T23:58:00.182Z,2.90
